createdAt,value
2023-06-18T00:00:43.150Z,17.65
2023-06-18T00:03:10.226Z,19.75
2023-06-18T00:05:37.391Z,17.00
2023-06-18T00:08:06.919Z,20.63
2023-06-18T00:10:34.173Z,16.15
2023-06-18T00:13:01.332Z,19.10
2023-06-18T00:15:28.588Z,16.70
2023-06-18T00:18:21.478Z,17.15
2023-06-18T00:20:50.282Z,20.15
2023-06-18T00:23:17.382Z,17.65
2023-06-18T00:25:44.477Z,23.02
2023-06-18T00:28:11.607Z,22.90
2023-06-18T00:30:38.875Z,21.17
2023-06-18T00:33:07.245Z,23.13
2023-06-18T00:35:34.500Z,22.85
2023-06-18T00:38:04.112Z,20.95
2023-06-18T00:40:31.361Z,29.13
2023-06-18T00:42:59.722Z,22.67
2023-06-18T00:45:30.231Z,20.38
2023-06-18T00:47:58.499Z,19.73
2023-06-18T00:50:27.915Z,18.88
2023-06-18T00:53:01.275Z,18.50
2023-06-18T00:55:33.084Z,19.08
2023-06-18T00:58:01.142Z,18.02
2023-06-18T01:00:29.855Z,20.83
2023-06-18T01:03:01.664Z,21.48
2023-06-18T01:05:32.763Z,21.08
2023-06-18T01:08:07.841Z,21.30
2023-06-18T01:10:41.117Z,21.48
2023-06-18T01:13:10.525Z,20.05
2023-06-18T01:15:39.092Z,18.42
2023-06-18T01:18:08.973Z,17.80
2023-06-18T01:20:42.229Z,19.23
2023-06-18T01:23:31.618Z,22.50
2023-06-18T01:26:01.911Z,18.10
2023-06-18T01:28:30.699Z,18.70
2023-06-18T01:30:59.653Z,17.38
2023-06-18T01:33:26.929Z,20.35
2023-06-18T01:35:55.468Z,21.50
2023-06-18T01:38:43.911Z,16.83
2023-06-18T01:41:19.632Z,21.35
2023-06-18T01:44:08.967Z,18.40
2023-06-18T01:46:36.632Z,19.98
2023-06-18T01:49:08.589Z,21.67
2023-06-18T01:51:38.260Z,18.15
2023-06-18T01:54:08.685Z,17.63
2023-06-18T01:56:36.210Z,23.17
2023-06-18T01:59:04.254Z,18.80
2023-06-18T02:01:34.662Z,16.33
2023-06-18T02:04:03.996Z,15.88
2023-06-18T02:06:31.226Z,14.80
2023-06-18T02:08:58.669Z,16.33
2023-06-18T02:11:27.076Z,18.38
2023-06-18T02:13:54.296Z,17.08
2023-06-18T02:16:21.610Z,22.05
2023-06-18T02:18:48.787Z,19.67
2023-06-18T02:21:15.951Z,17.90
2023-06-18T02:23:43.139Z,19.00
2023-06-18T02:26:10.400Z,18.10
2023-06-18T02:28:37.723Z,19.20
2023-06-18T02:31:07.346Z,19.98
2023-06-18T02:33:34.548Z,19.65
2023-06-18T02:36:01.870Z,18.80
2023-06-18T02:38:29.283Z,18.45
2023-06-18T02:40:57.138Z,18.95
2023-06-18T02:43:26.352Z,19.42
2023-06-18T02:45:53.817Z,18.02
2023-06-18T02:48:21.068Z,19.48
2023-06-18T02:50:48.723Z,19.08
2023-06-18T02:53:16.216Z,18.98
2023-06-18T02:55:43.794Z,18.25
2023-06-18T02:58:29.962Z,19.08
2023-06-18T03:01:01.339Z,19.83
2023-06-18T03:06:09.843Z,18.38
2023-06-18T03:08:37.891Z,21.48
2023-06-18T03:11:05.819Z,18.00
2023-06-18T03:13:33.498Z,16.92
2023-06-18T03:16:01.024Z,19.27
2023-06-18T03:18:31.394Z,24.63
2023-06-18T03:21:05.280Z,20.35
2023-06-18T03:23:32.540Z,19.23
2023-06-18T03:26:07.537Z,19.13
2023-06-18T03:28:36.842Z,16.08
2023-06-18T03:31:04.431Z,19.25
2023-06-18T03:33:33.561Z,19.00
2023-06-18T03:36:01.721Z,17.17
2023-06-18T03:38:31.986Z,16.42
2023-06-18T03:41:02.685Z,19.33
2023-06-18T03:43:32.054Z,13.70
2023-06-18T03:46:00.126Z,15.40
2023-06-18T03:48:28.011Z,18.60
2023-06-18T03:50:55.123Z,15.10
2023-06-18T03:53:22.421Z,20.13
2023-06-18T03:55:49.848Z,13.57
2023-06-18T03:58:19.704Z,17.23
2023-06-18T04:00:48.804Z,15.43
2023-06-18T04:03:16.321Z,16.92
2023-06-18T04:05:43.519Z,16.05
2023-06-18T04:08:10.674Z,16.00
2023-06-18T04:10:38.875Z,20.20
2023-06-18T04:13:06.030Z,18.27
2023-06-18T04:15:33.378Z,15.85
2023-06-18T04:18:00.951Z,15.57
2023-06-18T04:20:28.596Z,13.25
2023-06-18T04:22:56.093Z,11.93
2023-06-18T04:25:23.822Z,15.20
2023-06-18T04:27:54.706Z,12.82
2023-06-18T04:30:22.570Z,16.95
2023-06-18T04:34:10.523Z,14.65
2023-06-18T04:36:38.009Z,13.13
2023-06-18T04:39:05.592Z,16.30
2023-06-18T04:41:32.857Z,14.20
2023-06-18T04:44:00.170Z,15.25
2023-06-18T04:46:27.390Z,16.60
2023-06-18T04:48:55.193Z,13.90
2023-06-18T04:51:24.477Z,12.52
2023-06-18T04:53:51.668Z,12.90
2023-06-18T04:56:19.572Z,14.85
2023-06-18T04:58:48.738Z,11.90
2023-06-18T05:01:16.102Z,12.95
2023-06-18T05:03:45.242Z,14.18
2023-06-18T05:06:13.120Z,12.15
2023-06-18T05:08:40.677Z,12.82
2023-06-18T05:11:07.894Z,11.73
2023-06-18T05:13:38.498Z,14.35
2023-06-18T05:16:05.660Z,14.20
2023-06-18T05:18:32.791Z,13.98
2023-06-18T05:21:01.445Z,12.85
2023-06-18T05:23:28.790Z,13.88
2023-06-18T05:25:56.499Z,14.27
2023-06-18T05:28:23.614Z,13.73
2023-06-18T05:30:50.805Z,14.50
2023-06-18T05:33:18.172Z,11.32
2023-06-18T05:35:50.030Z,17.40
2023-06-18T05:38:17.224Z,11.65
2023-06-18T05:40:44.461Z,12.18
2023-06-18T05:43:12.214Z,13.60
2023-06-18T05:45:45.157Z,10.93
2023-06-18T05:53:33.713Z,13.20
2023-06-18T05:56:26.078Z,12.10
2023-06-18T06:00:00.264Z,12.95
2023-06-18T06:04:55.405Z,11.70
2023-06-18T06:19:05.150Z,15.00
2023-06-18T06:24:00.242Z,12.70
2023-06-18T06:50:26.348Z,13.57
2023-06-18T06:53:03.306Z,13.25
2023-06-18T06:55:30.741Z,8.75
2023-06-18T06:57:58.071Z,7.57
2023-06-18T07:00:25.540Z,12.68
2023-06-18T07:02:54.290Z,11.10
2023-06-18T07:05:21.611Z,10.02
2023-06-18T07:07:48.994Z,11.38
2023-06-18T07:10:16.525Z,10.23
2023-06-18T07:12:45.188Z,12.63
2023-06-18T07:15:13.270Z,10.13
2023-06-18T07:17:40.931Z,10.85
2023-06-18T07:20:11.322Z,11.32
2023-06-18T07:22:48.348Z,11.45
2023-06-18T07:25:24.963Z,12.98
2023-06-18T07:27:52.623Z,12.32
2023-06-18T07:30:20.343Z,12.90
2023-06-18T07:32:47.660Z,13.38
2023-06-18T07:35:14.885Z,13.93
2023-06-18T07:37:45.034Z,9.82
2023-06-18T07:40:12.901Z,11.18
2023-06-18T07:42:40.170Z,10.30
2023-06-18T07:45:07.929Z,8.88
2023-06-18T07:47:35.027Z,11.40
2023-06-18T07:50:04.469Z,9.60
2023-06-18T07:52:33.737Z,13.80
2023-06-18T07:55:01.850Z,10.55
2023-06-18T07:57:29.049Z,8.98
2023-06-18T07:59:56.479Z,9.85
2023-06-18T08:02:23.706Z,10.85
2023-06-18T08:04:51.122Z,9.48
2023-06-18T08:07:19.437Z,9.73
2023-06-18T08:09:46.662Z,10.23
2023-06-18T08:12:14.017Z,8.40
2023-06-18T08:14:41.340Z,9.80
2023-06-18T08:17:08.534Z,11.43
2023-06-18T08:19:38.358Z,8.35
2023-06-18T08:22:06.362Z,9.88
2023-06-18T08:24:33.428Z,8.40
2023-06-18T08:27:00.537Z,13.73
2023-06-18T08:29:27.825Z,9.25
2023-06-18T08:32:01.272Z,10.32
2023-06-18T08:34:28.687Z,8.73
2023-06-18T08:36:55.917Z,11.45
2023-06-18T08:39:23.170Z,11.35
2023-06-18T08:41:50.873Z,10.73
2023-06-18T08:44:18.259Z,11.60
2023-06-18T08:46:48.156Z,10.43
2023-06-18T08:49:16.528Z,11.82
2023-06-18T08:51:45.714Z,10.20
2023-06-18T08:54:22.240Z,11.38
2023-06-18T08:56:58.709Z,9.15
2023-06-18T09:00:10.432Z,11.40
2023-06-18T09:02:52.242Z,8.38
2023-06-18T10:27:52.579Z,11.93
2023-06-18T10:44:03.902Z,12.48
2023-06-18T10:46:35.175Z,11.95
2023-06-18T10:49:17.276Z,11.97
2023-06-18T10:54:35.304Z,7.65
2023-06-18T10:57:03.359Z,11.90
2023-06-18T10:59:47.559Z,11.10
2023-06-18T11:02:15.289Z,9.07
2023-06-18T11:04:42.574Z,11.15
2023-06-18T11:07:20.923Z,10.98
2023-06-18T11:09:58.973Z,9.65
2023-06-18T11:12:28.796Z,11.35
2023-06-18T11:15:06.799Z,8.50
2023-06-18T11:17:35.144Z,11.68
2023-06-18T11:20:04.760Z,8.85
2023-06-18T11:22:32.255Z,9.75
2023-06-18T11:25:00.299Z,9.10
2023-06-18T11:27:28.689Z,8.45
2023-06-18T11:29:58.539Z,8.85
2023-06-18T11:32:29.271Z,9.93
2023-06-18T11:34:57.139Z,7.95
2023-06-18T11:37:29.080Z,7.82
2023-06-18T11:39:58.176Z,8.75
2023-06-18T11:42:28.701Z,7.18
2023-06-18T11:45:04.174Z,8.75
2023-06-18T11:47:35.802Z,9.70
2023-06-18T11:50:03.940Z,8.15
2023-06-18T11:52:31.890Z,8.00
2023-06-18T11:55:05.716Z,8.30
2023-06-18T11:57:34.402Z,7.80
2023-06-18T12:00:01.876Z,10.63
2023-06-18T12:02:41.026Z,6.60
2023-06-18T12:05:09.873Z,6.57
2023-06-18T12:07:43.928Z,7.50
2023-06-18T12:10:13.293Z,7.40
2023-06-18T12:13:34.457Z,5.53
2023-06-18T12:16:25.618Z,7.10
2023-06-18T12:19:02.415Z,9.70
2023-06-18T12:21:30.531Z,6.82
2023-06-18T12:23:58.383Z,6.65
2023-06-18T12:26:25.880Z,8.82
2023-06-18T12:28:54.554Z,7.07
2023-06-18T12:31:21.809Z,7.80
2023-06-18T12:33:48.934Z,9.50
2023-06-18T12:37:03.707Z,8.38
2023-06-18T13:02:52.665Z,8.98
2023-06-18T13:09:28.534Z,6.55
2023-06-18T13:15:59.106Z,6.75
2023-06-18T13:19:32.682Z,6.80
2023-06-18T13:27:44.990Z,6.95
2023-06-18T13:33:22.614Z,7.15
2023-06-18T13:36:31.114Z,9.02
2023-06-18T13:38:58.798Z,6.60
2023-06-18T13:41:27.168Z,6.35
2023-06-18T13:43:54.368Z,6.53
2023-06-18T13:46:21.583Z,5.30
2023-06-18T13:52:18.528Z,7.35
2023-06-18T13:55:30.155Z,8.35
2023-06-18T14:01:27.002Z,6.93
2023-06-18T14:04:43.752Z,6.15
2023-06-18T14:07:33.399Z,7.65
2023-06-18T14:10:13.704Z,7.30
2023-06-18T14:13:12.403Z,8.65
2023-06-18T14:16:34.097Z,7.65
2023-06-18T14:19:58.776Z,7.00
2023-06-18T14:23:09.145Z,6.70
2023-06-18T14:26:11.515Z,5.03
2023-06-18T14:32:35.052Z,5.68
2023-06-18T14:35:35.110Z,5.43
2023-06-18T14:38:16.254Z,6.88
2023-06-18T14:40:52.240Z,7.35
2023-06-18T14:43:47.058Z,5.68
2023-06-18T14:46:35.526Z,7.15
2023-06-18T14:49:17.396Z,7.80
2023-06-18T14:51:58.617Z,9.33
2023-06-18T14:55:05.418Z,7.20
2023-06-18T14:57:48.916Z,7.43
2023-06-18T15:01:11.954Z,5.85
2023-06-18T15:03:57.624Z,6.18
2023-06-18T15:06:24.795Z,6.20
2023-06-18T15:08:51.942Z,5.72
2023-06-18T15:11:19.309Z,6.38
2023-06-18T15:14:12.193Z,5.43
2023-06-18T15:16:44.743Z,6.35
2023-06-18T15:19:32.482Z,5.65
2023-06-18T15:22:51.121Z,6.40
2023-06-18T15:35:36.362Z,7.30
2023-06-18T15:38:23.878Z,7.68
2023-06-18T15:42:30.517Z,7.63
2023-06-18T15:47:51.379Z,7.68
2023-06-18T15:53:32.308Z,5.43
2023-06-18T15:56:24.898Z,5.32
2023-06-18T15:59:03.527Z,4.22
2023-06-18T16:01:39.893Z,5.28
2023-06-18T16:04:07.013Z,8.20
2023-06-18T16:06:34.047Z,7.15
2023-06-18T16:09:01.561Z,6.20
2023-06-18T16:11:28.783Z,5.95
2023-06-18T16:14:00.541Z,9.98
2023-06-18T16:16:28.563Z,6.15
2023-06-18T16:18:56.950Z,6.45
2023-06-18T16:21:24.223Z,6.13
2023-06-18T16:23:55.392Z,6.47
2023-06-18T16:26:26.165Z,4.18
2023-06-18T16:28:54.738Z,5.55
2023-06-18T16:31:23.010Z,7.57
2023-06-18T16:33:52.277Z,5.50
2023-06-18T16:36:19.755Z,5.15
2023-06-18T16:38:46.899Z,6.38
2023-06-18T16:41:13.928Z,8.20
2023-06-18T16:43:41.185Z,5.30
2023-06-18T16:46:09.043Z,8.63
2023-06-18T16:48:36.475Z,5.00
2023-06-18T16:51:05.299Z,5.40
2023-06-18T16:53:32.836Z,6.38
2023-06-18T16:55:59.951Z,6.28
2023-06-18T16:58:29.037Z,5.53
2023-06-18T17:00:56.345Z,5.50
2023-06-18T17:03:23.667Z,5.65
2023-06-18T17:05:51.097Z,5.70
2023-06-18T17:08:19.185Z,6.13
2023-06-18T17:10:46.431Z,8.35
2023-06-18T17:13:13.640Z,5.88
2023-06-18T17:15:41.011Z,5.72
2023-06-18T17:18:08.505Z,8.05
2023-06-18T17:21:07.979Z,7.22
2023-06-18T17:23:35.355Z,10.40
2023-06-18T17:26:05.593Z,7.10
2023-06-18T17:28:33.100Z,9.77
2023-06-18T17:31:09.799Z,5.88
2023-06-18T17:33:37.163Z,5.60
2023-06-18T17:36:11.777Z,7.07
2023-06-18T17:38:39.152Z,6.90
2023-06-18T17:41:08.560Z,5.40
2023-06-18T17:43:36.280Z,6.53
2023-06-18T17:46:18.338Z,4.85
2023-06-18T17:48:49.089Z,8.55
2023-06-18T17:51:17.865Z,7.93
2023-06-18T17:53:50.567Z,6.35
2023-06-18T17:56:20.854Z,8.45
2023-06-18T17:58:53.133Z,8.05
2023-06-18T18:01:23.359Z,7.30
2023-06-18T18:03:50.677Z,5.70
2023-06-18T18:06:17.967Z,6.00
2023-06-18T18:08:49.812Z,7.25
2023-06-18T18:11:18.490Z,8.45
2023-06-18T18:13:46.214Z,6.60
2023-06-18T18:16:13.973Z,5.85
2023-06-18T18:18:48.574Z,6.20
2023-06-18T18:21:16.708Z,10.90
2023-06-18T18:23:44.198Z,9.30
2023-06-18T18:26:14.021Z,10.90
2023-06-18T18:28:41.877Z,8.52
2023-06-18T18:31:09.671Z,8.07
2023-06-18T18:33:40.136Z,9.52
2023-06-18T18:36:09.652Z,8.05
2023-06-18T18:38:36.859Z,12.93
2023-06-18T18:41:04.076Z,12.85
2023-06-18T18:43:31.214Z,10.68
2023-06-18T18:45:58.823Z,10.68
2023-06-18T18:48:26.088Z,12.45
2023-06-18T18:50:53.559Z,8.68
2023-06-18T18:53:21.175Z,15.70
2023-06-18T18:55:49.100Z,9.35
2023-06-18T18:58:17.484Z,31.77
2023-06-18T19:00:44.701Z,10.43
2023-06-18T19:03:11.924Z,10.48
2023-06-18T19:05:39.151Z,13.07
2023-06-18T19:08:06.809Z,13.43
2023-06-18T19:10:34.188Z,11.98
2023-06-18T19:13:01.894Z,11.23
2023-06-18T19:15:29.158Z,10.60
2023-06-18T19:18:05.741Z,13.25
2023-06-18T19:20:36.792Z,13.65
2023-06-18T19:23:04.066Z,13.05
2023-06-18T19:25:34.523Z,12.27
2023-06-18T19:28:07.691Z,10.38
2023-06-18T19:30:35.119Z,11.15
2023-06-18T19:33:04.378Z,12.73
2023-06-18T19:35:31.695Z,14.05
2023-06-18T19:37:59.565Z,13.82
2023-06-18T19:40:26.678Z,13.52
2023-06-18T19:42:53.873Z,12.95
2023-06-18T19:45:21.062Z,13.20
2023-06-18T19:47:50.979Z,15.63
2023-06-18T19:50:18.692Z,12.43
2023-06-18T19:52:51.694Z,14.30
2023-06-18T19:55:47.272Z,12.93
2023-06-18T19:58:28.254Z,13.10
2023-06-18T20:01:15.245Z,12.07
2023-06-18T20:03:59.500Z,15.00
2023-06-18T20:06:47.794Z,13.88
2023-06-18T20:09:17.741Z,15.68
2023-06-18T20:11:45.121Z,17.00
2023-06-18T20:14:15.733Z,20.60
2023-06-18T20:16:42.833Z,13.82
2023-06-18T20:19:10.204Z,16.83
2023-06-18T20:21:37.496Z,12.25
2023-06-18T20:24:05.540Z,12.55
2023-06-18T20:26:59.107Z,14.18
2023-06-18T20:29:56.989Z,13.10
2023-06-18T20:32:44.818Z,12.73
2023-06-18T20:35:15.831Z,11.93
2023-06-18T20:37:49.051Z,11.02
2023-06-18T20:41:20.963Z,13.10
2023-06-18T20:47:44.319Z,18.30
2023-06-18T20:50:51.577Z,29.35
2023-06-18T20:53:19.942Z,26.35
2023-06-18T20:55:47.473Z,15.75
2023-06-18T20:58:17.713Z,16.20
2023-06-18T21:00:47.721Z,13.20
2023-06-18T21:03:55.989Z,17.73
2023-06-18T21:06:38.121Z,12.70
2023-06-18T21:09:05.727Z,12.98
2023-06-18T21:11:32.944Z,15.05
2023-06-18T21:14:00.328Z,12.98
2023-06-18T21:16:27.691Z,14.63
2023-06-18T21:18:55.069Z,11.70
2023-06-18T21:21:36.007Z,12.35
2023-06-18T21:24:30.330Z,15.20
2023-06-18T21:27:30.597Z,13.80
2023-06-18T21:30:00.770Z,13.70
2023-06-18T21:32:28.731Z,15.70
2023-06-18T21:34:56.696Z,13.98
2023-06-18T21:37:27.028Z,15.63
2023-06-18T21:40:09.043Z,12.23
2023-06-18T21:44:02.774Z,15.13
2023-06-18T21:47:33.547Z,10.73
2023-06-18T21:51:11.115Z,11.52
2023-06-18T21:57:31.492Z,15.02
2023-06-18T22:00:45.009Z,14.65
2023-06-18T22:03:18.801Z,20.08
2023-06-18T22:06:03.949Z,18.35
2023-06-18T22:08:51.142Z,14.30
2023-06-18T22:11:25.771Z,13.90
2023-06-18T22:14:00.383Z,14.50
2023-06-18T22:16:37.347Z,13.43
2023-06-18T22:19:21.547Z,15.68
2023-06-18T22:22:03.331Z,20.13
2023-06-18T22:24:40.785Z,13.70
2023-06-18T22:27:14.982Z,12.93
2023-06-18T22:46:24.922Z,14.77
2023-06-18T22:50:38.508Z,14.57
2023-06-18T23:01:37.504Z,13.43
2023-06-18T23:05:32.759Z,15.32
2023-06-18T23:16:56.191Z,13.70
2023-06-18T23:19:29.832Z,14.60
2023-06-18T23:21:59.855Z,14.30
2023-06-18T23:24:27.175Z,13.55
2023-06-18T23:26:57.878Z,13.50
2023-06-18T23:29:34.507Z,13.27
2023-06-18T23:32:21.281Z,13.73
2023-06-18T23:34:54.256Z,14.85
2023-06-18T23:37:24.441Z,12.88
2023-06-18T23:39:54.424Z,15.13
2023-06-18T23:42:26.017Z,18.33
2023-06-18T23:45:14.247Z,13.07
2023-06-18T23:47:58.219Z,14.05
2023-06-18T23:58:41.772Z,13.75
